sensor_id;sensor_type;location;lat;lon;timestamp;pressure;altitude;pressure_sealevel;temperature;humidity
27984;BME280;15317;50.360;8.726;2023-08-31T00:04:32;98829.03;;;12.28;100.00
27984;BME280;15317;50.360;8.726;2023-08-31T00:09:36;98845.63;;;12.18;100.00
27984;BME280;15317;50.360;8.726;2023-08-31T00:14:41;98848.09;;;12.13;100.00
27984;BME280;15317;50.360;8.726;2023-08-31T00:19:45;98856.31;;;12.05;100.00
27984;BME280;15317;50.360;8.726;2023-08-31T00:24:49;98862.69;;;11.98;100.00
27984;BME280;15317;50.360;8.726;2023-08-31T00:29:53;98862.75;;;11.90;100.00
27984;BME280;15317;50.360;8.726;2023-08-31T00:34:58;98862.19;;;11.79;100.00
27984;BME280;15317;50.360;8.726;2023-08-31T00:40:02;98866.63;;;11.72;100.00
27984;BME280;15317;50.360;8.726;2023-08-31T00:45:07;98863.56;;;11.67;100.00
27984;BME280;15317;50.360;8.726;2023-08-31T00:50:13;98868.53;;;11.64;100.00
27984;BME280;15317;50.360;8.726;2023-08-31T00:55:17;98871.81;;;11.59;100.00
27984;BME280;15317;50.360;8.726;2023-08-31T01:00:20;98875.56;;;11.58;100.00
27984;BME280;15317;50.360;8.726;2023-08-31T01:05:32;98878.09;;;11.60;100.00
27984;BME280;15317;50.360;8.726;2023-08-31T01:10:43;98879.97;;;11.59;100.00
27984;BME280;15317;50.360;8.726;2023-08-31T01:15:54;98877.78;;;11.55;100.00
27984;BME280;15317;50.360;8.726;2023-08-31T01:21:08;98879.53;;;11.47;100.00
27984;BME280;15317;50.360;8.726;2023-08-31T01:26:13;98879.22;;;11.42;100.00
27984;BME280;15317;50.360;8.726;2023-08-31T01:31:17;98876.56;;;11.34;100.00
27984;BME280;15317;50.360;8.726;2023-08-31T01:36:23;98883.41;;;11.30;100.00
27984;BME280;15317;50.360;8.726;2023-08-31T01:41:31;98883.03;;;11.33;100.00
27984;BME280;15317;50.360;8.726;2023-08-31T01:46:38;98886.59;;;11.34;100.00
27984;BME280;15317;50.360;8.726;2023-08-31T01:51:42;98894.22;;;11.38;100.00
27984;BME280;15317;50.360;8.726;2023-08-31T01:56:46;98896.22;;;11.44;100.00
27984;BME280;15317;50.360;8.726;2023-08-31T02:01:49;98904.34;;;11.53;100.00
27984;BME280;15317;50.360;8.726;2023-08-31T02:06:53;98899.38;;;11.56;100.00
27984;BME280;15317;50.360;8.726;2023-08-31T02:11:57;98896.09;;;11.61;100.00
27984;BME280;15317;50.360;8.726;2023-08-31T02:17:01;98903.19;;;11.70;100.00
27984;BME280;15317;50.360;8.726;2023-08-31T02:22:04;98907.09;;;11.67;100.00
27984;BME280;15317;50.360;8.726;2023-08-31T02:27:09;98907.31;;;11.66;100.00
27984;BME280;15317;50.360;8.726;2023-08-31T02:32:12;98914.75;;;11.72;100.00
27984;BME280;15317;50.360;8.726;2023-08-31T02:37:15;98914.56;;;11.73;100.00
27984;BME280;15317;50.360;8.726;2023-08-31T02:42:19;98917.28;;;11.73;100.00
27984;BME280;15317;50.360;8.726;2023-08-31T02:47:23;98908.16;;;11.66;100.00
27984;BME280;15317;50.360;8.726;2023-08-31T02:52:26;98906.97;;;11.61;100.00
27984;BME280;15317;50.360;8.726;2023-08-31T02:57:31;98904.75;;;11.64;100.00
27984;BME280;15317;50.360;8.726;2023-08-31T03:02:35;98906.94;;;11.69;100.00
27984;BME280;15317;50.360;8.726;2023-08-31T03:07:39;98907.06;;;11.75;100.00
27984;BME280;15317;50.360;8.726;2023-08-31T03:12:43;98902.59;;;11.82;100.00
27984;BME280;15317;50.360;8.726;2023-08-31T03:17:47;98892.94;;;11.80;100.00
27984;BME280;15317;50.360;8.726;2023-08-31T03:22:50;98903.44;;;11.83;100.00
27984;BME280;15317;50.360;8.726;2023-08-31T03:27:55;98906.47;;;11.88;100.00
27984;BME280;15317;50.360;8.726;2023-08-31T03:32:58;98910.25;;;11.87;100.00
27984;BME280;15317;50.360;8.726;2023-08-31T03:38:02;98909.56;;;11.85;100.00
27984;BME280;15317;50.360;8.726;2023-08-31T03:43:06;98915.00;;;11.85;100.00
27984;BME280;15317;50.360;8.726;2023-08-31T03:48:09;98922.56;;;11.75;100.00
27984;BME280;15317;50.360;8.726;2023-08-31T03:53:12;98925.38;;;11.59;100.00
27984;BME280;15317;50.360;8.726;2023-08-31T03:58:17;98926.13;;;11.44;100.00
27984;BME280;15317;50.360;8.726;2023-08-31T04:03:20;98931.81;;;11.27;100.00
27984;BME280;15317;50.360;8.726;2023-08-31T04:08:24;98934.47;;;11.12;100.00
27984;BME280;15317;50.360;8.726;2023-08-31T04:13:29;98943.00;;;11.01;100.00
27984;BME280;15317;50.360;8.726;2023-08-31T04:18:32;98943.00;;;10.93;100.00
27984;BME280;15317;50.360;8.726;2023-08-31T04:23:35;98952.19;;;10.92;100.00
27984;BME280;15317;50.360;8.726;2023-08-31T04:28:40;98953.88;;;10.93;100.00
27984;BME280;15317;50.360;8.726;2023-08-31T04:33:44;98963.75;;;10.86;100.00
27984;BME280;15317;50.360;8.726;2023-08-31T04:38:49;98967.88;;;10.74;100.00
27984;BME280;15317;50.360;8.726;2023-08-31T04:43:53;98967.38;;;10.70;100.00
27984;BME280;15317;50.360;8.726;2023-08-31T04:48:56;98963.31;;;10.66;100.00
27984;BME280;15317;50.360;8.726;2023-08-31T04:54:00;98977.75;;;10.58;100.00
27984;BME280;15317;50.360;8.726;2023-08-31T04:59:06;98976.06;;;10.49;100.00
27984;BME280;15317;50.360;8.726;2023-08-31T05:04:09;98982.16;;;10.51;100.00
27984;BME280;15317;50.360;8.726;2023-08-31T05:09:12;98984.22;;;10.49;100.00
27984;BME280;15317;50.360;8.726;2023-08-31T05:14:17;98994.72;;;10.52;100.00
27984;BME280;15317;50.360;8.726;2023-08-31T05:19:21;99000.31;;;10.67;100.00
27984;BME280;15317;50.360;8.726;2023-08-31T05:24:26;99004.50;;;10.86;100.00
27984;BME280;15317;50.360;8.726;2023-08-31T05:29:30;99008.22;;;11.01;100.00
27984;BME280;15317;50.360;8.726;2023-08-31T05:34:34;99020.06;;;11.08;100.00
27984;BME280;15317;50.360;8.726;2023-08-31T05:39:41;99022.25;;;11.13;100.00
27984;BME280;15317;50.360;8.726;2023-08-31T05:44:45;99021.75;;;11.17;100.00
27984;BME280;15317;50.360;8.726;2023-08-31T05:49:49;99030.22;;;11.22;100.00
27984;BME280;15317;50.360;8.726;2023-08-31T05:54:53;99042.41;;;11.34;100.00
27984;BME280;15317;50.360;8.726;2023-08-31T05:59:58;99042.03;;;11.45;100.00
27984;BME280;15317;50.360;8.726;2023-08-31T06:05:01;99033.44;;;11.65;100.00
27984;BME280;15317;50.360;8.726;2023-08-31T06:10:06;99035.59;;;11.85;100.00
27984;BME280;15317;50.360;8.726;2023-08-31T06:15:11;99044.31;;;12.04;100.00
27984;BME280;15317;50.360;8.726;2023-08-31T06:20:15;99031.63;;;12.19;100.00
27984;BME280;15317;50.360;8.726;2023-08-31T06:25:18;99039.91;;;12.48;100.00
27984;BME280;15317;50.360;8.726;2023-08-31T06:30:23;99038.38;;;12.69;100.00
27984;BME280;15317;50.360;8.726;2023-08-31T06:35:26;99040.19;;;12.91;100.00
27984;BME280;15317;50.360;8.726;2023-08-31T06:40:29;99047.31;;;13.15;100.00
27984;BME280;15317;50.360;8.726;2023-08-31T06:45:34;99030.72;;;13.45;100.00
27984;BME280;15317;50.360;8.726;2023-08-31T06:50:38;99025.69;;;13.78;100.00
27984;BME280;15317;50.360;8.726;2023-08-31T06:55:41;99032.78;;;14.09;100.00
27984;BME280;15317;50.360;8.726;2023-08-31T07:00:45;99047.69;;;14.28;100.00
27984;BME280;15317;50.360;8.726;2023-08-31T07:05:49;99040.91;;;14.59;100.00
27984;BME280;15317;50.360;8.726;2023-08-31T07:10:52;99054.94;;;15.33;100.00
27984;BME280;15317;50.360;8.726;2023-08-31T07:15:57;99042.63;;;15.98;100.00
27984;BME280;15317;50.360;8.726;2023-08-31T07:21:00;99048.28;;;16.57;100.00
27984;BME280;15317;50.360;8.726;2023-08-31T07:26:04;99044.53;;;17.05;100.00
27984;BME280;15317;50.360;8.726;2023-08-31T07:31:08;99048.63;;;17.80;100.00
27984;BME280;15317;50.360;8.726;2023-08-31T07:36:11;99061.63;;;18.80;95.64
27984;BME280;15317;50.360;8.726;2023-08-31T07:41:14;99056.47;;;18.52;91.57
27984;BME280;15317;50.360;8.726;2023-08-31T07:46:19;99075.31;;;19.11;88.58
27984;BME280;15317;50.360;8.726;2023-08-31T07:51:22;99073.75;;;18.97;93.60
27984;BME280;15317;50.360;8.726;2023-08-31T07:56:27;99082.34;;;19.32;89.47
27984;BME280;15317;50.360;8.726;2023-08-31T08:01:32;99084.03;;;19.94;85.72
27984;BME280;15317;50.360;8.726;2023-08-31T08:06:36;99091.13;;;20.57;81.00
27984;BME280;15317;50.360;8.726;2023-08-31T08:11:39;99099.94;;;20.29;75.85
27984;BME280;15317;50.360;8.726;2023-08-31T08:16:45;99100.88;;;19.50;82.67
27984;BME280;15317;50.360;8.726;2023-08-31T08:21:49;99109.69;;;19.95;71.77
27984;BME280;15317;50.360;8.726;2023-08-31T08:26:52;99105.00;;;19.59;79.86
27984;BME280;15317;50.360;8.726;2023-08-31T08:31:56;99102.00;;;18.48;81.55
27984;BME280;15317;50.360;8.726;2023-08-31T08:36:59;99115.28;;;18.13;89.81
27984;BME280;15317;50.360;8.726;2023-08-31T08:42:04;99123.81;;;17.92;88.21
27984;BME280;15317;50.360;8.726;2023-08-31T08:47:11;99118.34;;;18.30;82.46
27984;BME280;15317;50.360;8.726;2023-08-31T08:52:15;99124.13;;;18.22;83.57
27984;BME280;15317;50.360;8.726;2023-08-31T08:57:18;99133.94;;;17.98;78.94
27984;BME280;15317;50.360;8.726;2023-08-31T09:02:23;99137.59;;;17.59;83.92
27984;BME280;15317;50.360;8.726;2023-08-31T09:07:29;99131.03;;;17.40;80.87
27984;BME280;15317;50.360;8.726;2023-08-31T09:12:36;99130.41;;;17.51;89.98
27984;BME280;15317;50.360;8.726;2023-08-31T09:17:41;99136.09;;;17.43;80.72
27984;BME280;15317;50.360;8.726;2023-08-31T09:22:46;99132.28;;;17.57;84.08
27984;BME280;15317;50.360;8.726;2023-08-31T09:27:53;99133.94;;;17.98;87.75
27984;BME280;15317;50.360;8.726;2023-08-31T09:32:58;99139.44;;;18.42;86.40
27984;BME280;15317;50.360;8.726;2023-08-31T09:38:01;99137.81;;;18.35;85.65
27984;BME280;15317;50.360;8.726;2023-08-31T09:43:04;99141.19;;;17.66;80.12
27984;BME280;15317;50.360;8.726;2023-08-31T09:48:09;99128.53;;;17.25;87.47
27984;BME280;15317;50.360;8.726;2023-08-31T09:53:15;99138.13;;;18.07;84.80
27984;BME280;15317;50.360;8.726;2023-08-31T09:58:20;99135.31;;;18.71;81.42
27984;BME280;15317;50.360;8.726;2023-08-31T10:03:26;99134.81;;;19.12;75.29
27984;BME280;15317;50.360;8.726;2023-08-31T10:08:30;99132.38;;;19.54;78.01
27984;BME280;15317;50.360;8.726;2023-08-31T10:13:34;99143.56;;;20.86;69.41
27984;BME280;15317;50.360;8.726;2023-08-31T10:18:41;99145.41;;;21.46;62.60
27984;BME280;15317;50.360;8.726;2023-08-31T10:23:44;99155.09;;;20.65;63.89
27984;BME280;15317;50.360;8.726;2023-08-31T10:28:48;99141.34;;;20.47;64.93
27984;BME280;15317;50.360;8.726;2023-08-31T10:33:59;99150.09;;;21.57;67.48
27984;BME280;15317;50.360;8.726;2023-08-31T10:39:11;99146.28;;;21.70;63.26
27984;BME280;15317;50.360;8.726;2023-08-31T10:44:19;99160.19;;;20.32;68.42
27984;BME280;15317;50.360;8.726;2023-08-31T10:49:24;99149.00;;;19.65;66.39
27984;BME280;15317;50.360;8.726;2023-08-31T10:54:32;99152.06;;;20.37;68.25
27984;BME280;15317;50.360;8.726;2023-08-31T10:59:50;99146.53;;;21.15;60.99
27984;BME280;15317;50.360;8.726;2023-08-31T11:04:56;99146.63;;;21.73;63.47
27984;BME280;15317;50.360;8.726;2023-08-31T11:10:10;99143.00;;;22.19;55.59
27984;BME280;15317;50.360;8.726;2023-08-31T11:15:17;99148.06;;;22.22;53.71
27984;BME280;15317;50.360;8.726;2023-08-31T11:20:24;99147.34;;;22.95;58.94
27984;BME280;15317;50.360;8.726;2023-08-31T11:25:31;99152.88;;;23.23;50.77
27984;BME280;15317;50.360;8.726;2023-08-31T11:30:35;99150.84;;;21.99;54.28
27984;BME280;15317;50.360;8.726;2023-08-31T11:35:43;99134.88;;;20.83;57.21
27984;BME280;15317;50.360;8.726;2023-08-31T11:40:47;99137.19;;;20.01;65.00
27984;BME280;15317;50.360;8.726;2023-08-31T11:45:53;99135.03;;;20.88;64.20
27984;BME280;15317;50.360;8.726;2023-08-31T11:50:58;99131.72;;;21.74;61.37
27984;BME280;15317;50.360;8.726;2023-08-31T11:56:02;99137.75;;;22.58;53.01
27984;BME280;15317;50.360;8.726;2023-08-31T12:01:06;99125.97;;;22.91;56.84
27984;BME280;15317;50.360;8.726;2023-08-31T12:06:10;99135.31;;;21.86;54.56
27984;BME280;15317;50.360;8.726;2023-08-31T12:11:13;99128.88;;;21.16;60.12
27984;BME280;15317;50.360;8.726;2023-08-31T12:16:17;99124.50;;;20.97;58.69
27984;BME280;15317;50.360;8.726;2023-08-31T12:21:21;99124.88;;;21.42;55.67
27984;BME280;15317;50.360;8.726;2023-08-31T12:26:25;99124.03;;;21.76;55.76
27984;BME280;15317;50.360;8.726;2023-08-31T12:31:28;99114.41;;;21.67;58.65
27984;BME280;15317;50.360;8.726;2023-08-31T12:36:33;99104.03;;;22.61;58.37
27984;BME280;15317;50.360;8.726;2023-08-31T12:41:39;99099.91;;;22.75;51.08
27984;BME280;15317;50.360;8.726;2023-08-31T12:46:42;99102.75;;;22.00;50.59
27984;BME280;15317;50.360;8.726;2023-08-31T12:51:46;99102.16;;;21.75;56.15
27984;BME280;15317;50.360;8.726;2023-08-31T12:56:50;99113.91;;;22.05;50.62
27984;BME280;15317;50.360;8.726;2023-08-31T13:01:53;99095.81;;;21.62;49.85
27984;BME280;15317;50.360;8.726;2023-08-31T13:06:58;99097.09;;;21.37;51.35
27984;BME280;15317;50.360;8.726;2023-08-31T13:12:01;99097.91;;;21.14;57.27
27984;BME280;15317;50.360;8.726;2023-08-31T13:17:05;99103.41;;;21.14;55.44
27984;BME280;15317;50.360;8.726;2023-08-31T13:22:10;99104.75;;;20.81;61.14
27984;BME280;15317;50.360;8.726;2023-08-31T13:27:17;99092.78;;;21.52;61.88
27984;BME280;15317;50.360;8.726;2023-08-31T13:32:21;99087.16;;;22.34;55.05
27984;BME280;15317;50.360;8.726;2023-08-31T13:37:25;99085.75;;;22.88;54.17
27984;BME280;15317;50.360;8.726;2023-08-31T13:42:33;99094.41;;;23.08;48.73
27984;BME280;15317;50.360;8.726;2023-08-31T13:47:37;99093.25;;;23.38;48.69
27984;BME280;15317;50.360;8.726;2023-08-31T13:52:42;99072.94;;;23.49;51.47
27984;BME280;15317;50.360;8.726;2023-08-31T13:57:46;99078.41;;;23.60;52.60
27984;BME280;15317;50.360;8.726;2023-08-31T14:02:49;99075.28;;;23.57;45.80
27984;BME280;15317;50.360;8.726;2023-08-31T14:07:54;99067.28;;;23.27;48.96
27984;BME280;15317;50.360;8.726;2023-08-31T14:12:57;99065.34;;;22.94;48.95
27984;BME280;15317;50.360;8.726;2023-08-31T14:18:00;99067.03;;;22.38;49.18
27984;BME280;15317;50.360;8.726;2023-08-31T14:23:06;99058.56;;;22.57;46.79
27984;BME280;15317;50.360;8.726;2023-08-31T14:28:09;99049.25;;;22.34;48.03
27984;BME280;15317;50.360;8.726;2023-08-31T14:33:12;99059.66;;;22.72;46.41
27984;BME280;15317;50.360;8.726;2023-08-31T14:38:20;99070.16;;;22.70;43.55
27984;BME280;15317;50.360;8.726;2023-08-31T14:43:23;99063.28;;;22.16;44.90
27984;BME280;15317;50.360;8.726;2023-08-31T14:48:26;99080.72;;;22.45;47.89
27984;BME280;15317;50.360;8.726;2023-08-31T14:53:31;99081.72;;;21.76;45.62
27984;BME280;15317;50.360;8.726;2023-08-31T14:58:35;99092.09;;;21.04;45.85
27984;BME280;15317;50.360;8.726;2023-08-31T15:03:38;99098.22;;;20.64;49.29
27984;BME280;15317;50.360;8.726;2023-08-31T15:08:43;99092.00;;;20.39;51.22
27984;BME280;15317;50.360;8.726;2023-08-31T15:13:46;99089.50;;;20.19;49.75
27984;BME280;15317;50.360;8.726;2023-08-31T15:18:49;99097.81;;;20.49;51.97
27984;BME280;15317;50.360;8.726;2023-08-31T15:23:54;99085.59;;;20.86;51.28
27984;BME280;15317;50.360;8.726;2023-08-31T15:28:58;99082.50;;;20.95;50.13
27984;BME280;15317;50.360;8.726;2023-08-31T15:34:01;99094.69;;;20.45;49.35
27984;BME280;15317;50.360;8.726;2023-08-31T15:39:06;99097.81;;;19.94;51.13
27984;BME280;15317;50.360;8.726;2023-08-31T15:44:09;99102.63;;;19.62;53.11
27984;BME280;15317;50.360;8.726;2023-08-31T15:49:13;99099.03;;;19.62;55.03
27984;BME280;15317;50.360;8.726;2023-08-31T15:54:17;99087.41;;;19.60;55.34
27984;BME280;15317;50.360;8.726;2023-08-31T15:59:21;99098.19;;;19.61;54.81
27984;BME280;15317;50.360;8.726;2023-08-31T16:04:24;99093.66;;;19.49;54.50
27984;BME280;15317;50.360;8.726;2023-08-31T16:09:28;99099.81;;;19.19;62.74
27984;BME280;15317;50.360;8.726;2023-08-31T16:14:32;99092.94;;;19.10;58.13
27984;BME280;15317;50.360;8.726;2023-08-31T16:19:35;99094.00;;;18.78;66.26
27984;BME280;15317;50.360;8.726;2023-08-31T16:24:39;99095.59;;;18.61;69.04
27984;BME280;15317;50.360;8.726;2023-08-31T16:29:43;99099.00;;;18.56;70.79
27984;BME280;15317;50.360;8.726;2023-08-31T16:34:51;99096.03;;;18.58;68.88
27984;BME280;15317;50.360;8.726;2023-08-31T16:39:57;99092.41;;;18.64;69.62
27984;BME280;15317;50.360;8.726;2023-08-31T16:45:00;99099.34;;;18.73;65.35
27984;BME280;15317;50.360;8.726;2023-08-31T16:50:03;99084.94;;;18.71;69.17
27984;BME280;15317;50.360;8.726;2023-08-31T16:55:08;99097.69;;;18.65;69.91
27984;BME280;15317;50.360;8.726;2023-08-31T17:00:12;99089.69;;;18.50;67.41
27984;BME280;15317;50.360;8.726;2023-08-31T17:05:16;99088.97;;;18.30;69.73
27984;BME280;15317;50.360;8.726;2023-08-31T17:10:21;99096.22;;;18.18;75.68
27984;BME280;15317;50.360;8.726;2023-08-31T17:15:24;99091.59;;;18.12;69.76
27984;BME280;15317;50.360;8.726;2023-08-31T17:20:27;99099.63;;;18.13;66.27
27984;BME280;15317;50.360;8.726;2023-08-31T17:25:34;99106.03;;;18.01;69.67
27984;BME280;15317;50.360;8.726;2023-08-31T17:30:37;99110.72;;;17.87;69.46
27984;BME280;15317;50.360;8.726;2023-08-31T17:35:42;99107.78;;;17.75;69.20
27984;BME280;15317;50.360;8.726;2023-08-31T17:40:46;99113.31;;;17.62;71.66
27984;BME280;15317;50.360;8.726;2023-08-31T17:45:51;99113.06;;;17.57;70.85
27984;BME280;15317;50.360;8.726;2023-08-31T17:50:54;99111.19;;;17.51;69.97
27984;BME280;15317;50.360;8.726;2023-08-31T17:55:58;99116.50;;;17.33;70.98
27984;BME280;15317;50.360;8.726;2023-08-31T18:01:02;99123.25;;;17.24;71.47
27984;BME280;15317;50.360;8.726;2023-08-31T18:06:06;99124.50;;;17.08;75.04
27984;BME280;15317;50.360;8.726;2023-08-31T18:11:11;99131.88;;;16.94;74.74
27984;BME280;15317;50.360;8.726;2023-08-31T18:16:14;99136.09;;;16.84;84.05
27984;BME280;15317;50.360;8.726;2023-08-31T18:21:18;99140.66;;;16.57;90.00
27984;BME280;15317;50.360;8.726;2023-08-31T18:26:23;99151.31;;;16.39;89.74
27984;BME280;15317;50.360;8.726;2023-08-31T18:31:26;99155.25;;;16.16;99.73
27984;BME280;15317;50.360;8.726;2023-08-31T18:36:29;99151.75;;;15.88;100.00
27984;BME280;15317;50.360;8.726;2023-08-31T18:41:34;99153.91;;;15.65;100.00
27984;BME280;15317;50.360;8.726;2023-08-31T18:46:37;99153.53;;;15.47;100.00
27984;BME280;15317;50.360;8.726;2023-08-31T18:51:40;99161.03;;;15.38;100.00
27984;BME280;15317;50.360;8.726;2023-08-31T18:56:47;99174.00;;;15.29;100.00
27984;BME280;15317;50.360;8.726;2023-08-31T19:01:51;99168.28;;;15.24;100.00
27984;BME280;15317;50.360;8.726;2023-08-31T19:06:54;99176.06;;;15.21;100.00
27984;BME280;15317;50.360;8.726;2023-08-31T19:11:58;99177.91;;;15.14;100.00
27984;BME280;15317;50.360;8.726;2023-08-31T19:17:01;99185.13;;;15.00;100.00
27984;BME280;15317;50.360;8.726;2023-08-31T19:22:04;99172.44;;;14.92;100.00
27984;BME280;15317;50.360;8.726;2023-08-31T19:27:09;99186.53;;;14.96;100.00
27984;BME280;15317;50.360;8.726;2023-08-31T19:32:12;99175.09;;;15.07;100.00
27984;BME280;15317;50.360;8.726;2023-08-31T19:37:16;99190.53;;;15.42;90.53
27984;BME280;15317;50.360;8.726;2023-08-31T19:42:21;99193.91;;;15.66;86.82
27984;BME280;15317;50.360;8.726;2023-08-31T19:47:24;99193.34;;;15.77;87.46
27984;BME280;15317;50.360;8.726;2023-08-31T19:52:27;99189.19;;;15.81;87.03
27984;BME280;15317;50.360;8.726;2023-08-31T19:57:32;99194.47;;;15.83;85.45
27984;BME280;15317;50.360;8.726;2023-08-31T20:02:35;99193.00;;;15.87;83.96
27984;BME280;15317;50.360;8.726;2023-08-31T20:07:38;99202.22;;;15.79;82.91
27984;BME280;15317;50.360;8.726;2023-08-31T20:12:43;99202.00;;;15.74;85.53
27984;BME280;15317;50.360;8.726;2023-08-31T20:17:46;99197.91;;;15.63;88.60
27984;BME280;15317;50.360;8.726;2023-08-31T20:22:49;99209.22;;;15.54;86.91
27984;BME280;15317;50.360;8.726;2023-08-31T20:27:54;99219.13;;;15.55;85.49
27984;BME280;15317;50.360;8.726;2023-08-31T20:32:57;99217.00;;;15.35;92.87
27984;BME280;15317;50.360;8.726;2023-08-31T20:38:00;99221.00;;;15.12;96.36
27984;BME280;15317;50.360;8.726;2023-08-31T20:43:06;99219.94;;;14.91;100.00
27984;BME280;15317;50.360;8.726;2023-08-31T20:48:09;99235.09;;;14.73;100.00
27984;BME280;15317;50.360;8.726;2023-08-31T20:53:13;99230.28;;;14.75;100.00
27984;BME280;15317;50.360;8.726;2023-08-31T20:58:18;99241.50;;;14.80;100.00
27984;BME280;15317;50.360;8.726;2023-08-31T21:03:21;99242.91;;;14.76;100.00
27984;BME280;15317;50.360;8.726;2023-08-31T21:08:24;99248.28;;;14.69;100.00
27984;BME280;15317;50.360;8.726;2023-08-31T21:13:30;99248.88;;;14.65;100.00
27984;BME280;15317;50.360;8.726;2023-08-31T21:18:38;99248.47;;;14.68;100.00
27984;BME280;15317;50.360;8.726;2023-08-31T21:23:41;99250.38;;;14.67;100.00
27984;BME280;15317;50.360;8.726;2023-08-31T21:28:46;99247.06;;;14.72;100.00
27984;BME280;15317;50.360;8.726;2023-08-31T21:33:49;99236.28;;;14.85;100.00
27984;BME280;15317;50.360;8.726;2023-08-31T21:38:53;99241.91;;;14.98;100.00
27984;BME280;15317;50.360;8.726;2023-08-31T21:43:57;99231.03;;;15.05;100.00
27984;BME280;15317;50.360;8.726;2023-08-31T21:49:01;99235.28;;;15.07;100.00
27984;BME280;15317;50.360;8.726;2023-08-31T21:54:05;99238.38;;;15.04;100.00
27984;BME280;15317;50.360;8.726;2023-08-31T21:59:10;99239.41;;;15.03;100.00
27984;BME280;15317;50.360;8.726;2023-08-31T22:04:13;99254.13;;;15.02;100.00
27984;BME280;15317;50.360;8.726;2023-08-31T22:09:19;99252.19;;;14.96;100.00
27984;BME280;15317;50.360;8.726;2023-08-31T22:14:23;99241.91;;;14.98;100.00
27984;BME280;15317;50.360;8.726;2023-08-31T22:19:27;99251.13;;;14.97;100.00
27984;BME280;15317;50.360;8.726;2023-08-31T22:24:30;99243.53;;;14.92;100.00
27984;BME280;15317;50.360;8.726;2023-08-31T22:29:35;99242.28;;;14.95;100.00
27984;BME280;15317;50.360;8.726;2023-08-31T22:34:39;99244.63;;;14.98;100.00
27984;BME280;15317;50.360;8.726;2023-08-31T22:39:42;99254.91;;;14.96;100.00
27984;BME280;15317;50.360;8.726;2023-08-31T22:44:46;99246.06;;;14.94;100.00
27984;BME280;15317;50.360;8.726;2023-08-31T22:49:51;99244.31;;;14.86;100.00
27984;BME280;15317;50.360;8.726;2023-08-31T22:54:55;99237.31;;;14.84;100.00
27984;BME280;15317;50.360;8.726;2023-08-31T22:59:59;99235.25;;;14.86;100.00
27984;BME280;15317;50.360;8.726;2023-08-31T23:05:03;99234.34;;;14.79;100.00
27984;BME280;15317;50.360;8.726;2023-08-31T23:10:08;99244.22;;;14.80;100.00
27984;BME280;15317;50.360;8.726;2023-08-31T23:15:25;99240.44;;;14.81;100.00
27984;BME280;15317;50.360;8.726;2023-08-31T23:20:28;99247.03;;;14.86;100.00
27984;BME280;15317;50.360;8.726;2023-08-31T23:25:31;99245.53;;;14.84;100.00
27984;BME280;15317;50.360;8.726;2023-08-31T23:30:37;99247.59;;;14.82;100.00
27984;BME280;15317;50.360;8.726;2023-08-31T23:35:40;99245.25;;;14.79;100.00
27984;BME280;15317;50.360;8.726;2023-08-31T23:40:45;99260.22;;;14.83;100.00
27984;BME280;15317;50.360;8.726;2023-08-31T23:45:50;99264.78;;;14.76;100.00
27984;BME280;15317;50.360;8.726;2023-08-31T23:50:53;99253.84;;;14.76;100.00
27984;BME280;15317;50.360;8.726;2023-08-31T23:55:57;99259.78;;;14.79;100.00
